RJFF Airport Information

Runway Information
Runway 16 Length 9186 ft width 197 ft
Elevation 15 ft Threshold 0 ft Heading 150
Runway 34 Length 9186 ft Width 197 ft
Elevation 32 ft Threshold 0 ft Heading 330
Airport Frequencies
Type APP Name APP Frequency 119.1 MHZ
Type ATIS Name ATIS Frequency 127.2 MHZ
Type CLD Name CLNC DEL Frequency 121.925 MHZ
Type DEP Name DEP Frequency 119.7 MHZ
Type GND Name GND Frequency 121.7 MHZ
Type TCA Name TCA Frequency 121.275 MHZ
Type TWR Name TWR Frequency 118.4 MHZ
Airport Navaids
Type VORTAC Name Fukuoka Frequency 114500 KHZ
Type NDB Name Fukuoka Frequency 203 KHZ
Airport Weather Information & NOTAM
ADDS - METARS form results

(1119 UTC 20 April 2019)
Data provider http://aviationweather.gov/metar/data/
 
METAR text: RJFF 201100Z 32003KT 180V360 CAVOK 17/11 Q1013 NOSIG RMK A2991
Conditions at: RJFF (FUKUOKA/ITAZUKE , JP) observed 1100 UTC 20 April 2019
Temperature: 17.0°C (63°F)
Dewpoint: 11.0°C (52°F) [RH = 68%]
Pressure (altimeter): 29.91 inches Hg (1013.0 mb)
Winds: from the NW (320 degrees) at 3 MPH (3 knots; 1.5 m/s)
Visibility: 6 or more miles (10+ km)
Ceiling: ceiling and visibility are OK
Clouds: unknown
Weather: no significant weather observed at this time

METAR text: RJFF 201030Z 31004KT 260V350 CAVOK 18/11 Q1012 NOSIG RMK A2991
Conditions at: RJFF (FUKUOKA/ITAZUKE , JP) observed 1030 UTC 20 April 2019
Temperature: 18.0°C (64°F)
Dewpoint: 11.0°C (52°F) [RH = 64%]
Pressure (altimeter): 29.88 inches Hg (1012.0 mb)
Winds: from the NW (310 degrees) at 5 MPH (4 knots; 2.1 m/s)
Visibility: 6 or more miles (10+ km)
Ceiling: ceiling and visibility are OK
Clouds: unknown
Weather: no significant weather observed at this time

Forecast for: RJFF (FUKUOKA/ITAZUKE , JP)
Text: TAF RJFF 200505Z 2006/2112 31010KT 9999 FEW035
Forecast period: 0600 to 1000 UTC 20 April 2019
Forecast type: FROM: standard forecast or significant change
Winds: from the NW (310 degrees) at 12 MPH (10 knots; 5.1 m/s)
Visibility: 6 or more miles 10+ km)
Ceiling: at least 12,000 feet AGL
Clouds: few clouds at 3500 feet AGL
Weather: no significant weather forecast for this period
Text: BECMG 2010/2012 14004KT
Forecast period: 1000 UTC 20 April 2019 to 0000 UTC 21 April 2019
Forecast type: BECOMING: Conditions expected to become as follows by 1200 UTC 20 April 2019
Winds: from the SE (140 degrees) at 5 MPH (4 knots; 2.1 m/s)
Visibility: 6 or more miles 10+ km)
Ceiling: at least 12,000 feet AGL
Clouds: few clouds at 3500 feet AGL
Weather: no significant weather forecast for this period
Text: BECMG 2100/2103 32010KT
Forecast period: 0000 to 1200 UTC 21 April 2019
Forecast type: BECOMING: Conditions expected to become as follows by 0300 UTC 21 April 2019
Winds: from the NW (320 degrees) at 12 MPH (10 knots; 5.1 m/s)
Visibility: 6 or more miles 10+ km)
Ceiling: at least 12,000 feet AGL
Clouds: few clouds at 3500 feet AGL
Weather: no significant weather forecast for this period